Terminal Aerodrome Forecast
Issued by NWS Nashville, TN

Home | Current Version | Previous Version | Text Only | Print | Product List | Glossary On
Versions: 1 2 3 4 5 6 7 8 9 10 11 12 13 14 15 16 17 18 19 20 21 22 23 24 25 26 27 28 29 30 31 32 33 34 35
000
FTUS44 KOHX 240800 AAC
TAFCSV
TAF AMD
KCSV 240825Z 2408/2506 21003KT 4SM BR OVC002
      TEMPO 2408/2411 2SM BR
     FM241130 00000KT 2SM BR BKN007
      TEMPO 2412/2413 4SM BR BKN011
     FM241400 27007KT P6SM BKN025
     FM241800 32006KT P6SM BKN050=

USA.gov is the U.S. government's official web portal to all federal, state and local government web resources and services.